Time;durP1;ratioP1;P1;durP2;ratioP2;P2;SDS_P1;SDS_P2;PMS_P1;PMS_P2;Temp;Humidity;BMP_temperature;BMP_pressure;BME280_temperature;BME280_humidity;BME280_pressure;Samples;Min_cycle;Max_cycle;Signal;HPM_P1;HPM_P2
2022/09/22 04:31:24;;;;;;;;;16.33;14.00;;;;;;;;5550823;22;46108;-58
2022/09/22 04:33:49;;;;;;;;;15.67;13.33;;;;;;;;5044295;28;45473;-59
2022/09/22 04:36:14;;;;;;;;;17.00;11.33;;;;;;;;5039249;28;45664;-59
2022/09/22 04:38:39;;;;;;;;;18.67;15.00;;;;;;;;5047003;28;46451;-59
2022/09/22 04:41:04;;;;;;;;;15.00;13.67;;;;;;;;5042449;28;46145;-58
2022/09/22 04:43:30;;;;;;;;;13.67;13.00;;;;;;;;5043830;28;45375;-58
2022/09/22 04:45:55;;;;;;;;;18.00;14.33;;;;;;;;5043508;28;45554;-59
2022/09/22 04:48:20;;;;;;;;;12.00;10.00;;;;;;;;5052135;28;45304;-59
2022/09/22 04:50:45;;;;;;;;;15.33;13.67;;;;;;;;5042952;28;46334;-59
2022/09/22 04:53:11;;;;;;;;;13.67;12.67;;;;;;;;5037562;28;45635;-59
2022/09/22 04:55:37;;;;;;;;;20.67;15.33;;;;;;;;5039472;28;45387;-59
2022/09/22 04:58:02;;;;;;;;;11.67;10.33;;;;;;;;5040118;28;45205;-59
2022/09/22 05:00:28;;;;;;;;;14.00;14.00;;;;;;;;5039297;28;47964;-59
2022/09/22 05:02:53;;;;;;;;;18.00;14.67;;;;;;;;5036452;28;45621;-59
2022/09/22 05:05:19;;;;;;;;;13.00;13.00;;;;;;;;5040119;28;45321;-59
2022/09/22 05:07:48;;;;;;;;;9.00;9.00;;;;;;;;5044107;28;45426;-59
2022/09/22 05:10:16;;;;;;;;;15.33;13.00;;;;;;;;5043284;28;46841;-59
2022/09/22 05:12:42;;;;;;;;;15.33;15.33;;;;;;;;5033729;28;45445;-60
2022/09/22 05:15:08;;;;;;;;;18.00;15.00;;;;;;;;5045870;28;45383;-59
2022/09/22 05:17:35;;;;;;;;;12.00;12.00;;;;;;;;5045480;28;45638;-59
2022/09/22 05:20:01;;;;;;;;;12.67;11.33;;;;;;;;5049307;28;46192;-59
2022/09/22 05:22:26;;;;;;;;;13.00;9.67;;;;;;;;5040436;28;45373;-59
2022/09/22 05:24:52;;;;;;;;;13.33;12.00;;;;;;;;5045000;28;45388;-59
2022/09/22 05:27:17;;;;;;;;;14.00;12.67;;;;;;;;5035964;28;45366;-59
2022/09/22 05:29:42;;;;;;;;;11.00;10.00;;;;;;;;5044688;28;45686;-59
2022/09/22 05:32:07;;;;;;;;;17.00;14.00;;;;;;;;5038124;28;45709;-59
2022/09/22 05:34:33;;;;;;;;;17.00;15.00;;;;;;;;5035794;28;45299;-58
2022/09/22 05:36:58;;;;;;;;;18.67;15.00;;;;;;;;5037811;28;45515;-59
2022/09/22 05:39:23;;;;;;;;;20.00;18.33;;;;;;;;5039300;28;45470;-58
2022/09/22 05:41:48;;;;;;;;;17.67;17.00;;;;;;;;5041810;28;45436;-59
2022/09/22 05:44:14;;;;;;;;;20.00;19.67;;;;;;;;5042207;28;45642;-59
2022/09/22 05:46:39;;;;;;;;;17.00;17.00;;;;;;;;5043423;28;45740;-58
2022/09/22 05:49:04;;;;;;;;;23.33;21.67;;;;;;;;5038318;28;46226;-58
2022/09/22 05:51:29;;;;;;;;;16.67;16.00;;;;;;;;5047912;28;45411;-60
2022/09/22 05:53:55;;;;;;;;;20.67;20.67;;;;;;;;5038553;28;45379;-59
2022/09/22 05:56:20;;;;;;;;;21.67;19.33;;;;;;;;5037500;28;45405;-58
2022/09/22 05:58:46;;;;;;;;;22.00;22.00;;;;;;;;5038240;28;46002;-59
2022/09/22 06:01:11;;;;;;;;;25.00;22.00;;;;;;;;5038517;28;45327;-59
2022/09/22 06:03:36;;;;;;;;;22.00;21.00;;;;;;;;5040393;28;45294;-59
2022/09/22 06:06:01;;;;;;;;;22.33;21.67;;;;;;;;5038280;28;45192;-59
2022/09/22 06:08:26;;;;;;;;;22.33;21.00;;;;;;;;5043314;28;45527;-58
2022/09/22 06:10:52;;;;;;;;;25.00;22.00;;;;;;;;5037403;28;45408;-59
2022/09/22 06:13:17;;;;;;;;;21.00;20.00;;;;;;;;5020278;28;45540;-59
2022/09/22 06:15:47;;;;;;;;;22.00;19.67;;;;;;;;5037353;28;45592;-59
2022/09/22 06:18:12;;;;;;;;;21.00;20.67;;;;;;;;5037768;28;47269;-59
2022/09/22 06:20:37;;;;;;;;;22.33;21.33;;;;;;;;5041896;28;45392;-60
2022/09/22 06:23:03;;;;;;;;;23.67;22.00;;;;;;;;5040094;28;45552;-60
2022/09/22 06:25:28;;;;;;;;;24.00;22.00;;;;;;;;5039407;28;45513;-60
2022/09/22 06:28:13;;;;;;;;;22.67;17.33;;;;;;;;5037758;28;45385;-60
2022/09/22 06:33:47;;;;;;;;;20.67;19.00;;;;;;;;5036864;28;45541;-59
2022/09/22 06:36:12;;;;;;;;;23.00;17.67;;;;;;;;5038820;28;45248;-58
2022/09/22 06:38:37;;;;;;;;;19.33;16.67;;;;;;;;5038005;28;46169;-58
2022/09/22 06:41:03;;;;;;;;;11.00;11.00;;;;;;;;5029026;28;45453;-58
2022/09/22 06:43:28;;;;;;;;;19.33;15.00;;;;;;;;5034989;28;45638;-58
2022/09/22 06:45:58;;;;;;;;;12.67;12.67;;;;;;;;5027781;28;45330;-59
2022/09/22 06:48:23;;;;;;;;;22.67;21.00;;;;;;;;5038528;28;45607;-59
2022/09/22 06:50:50;;;;;;;;;22.00;17.33;;;;;;;;5038866;28;45473;-58
2022/09/22 06:53:15;;;;;;;;;22.67;20.67;;;;;;;;5039615;28;45445;-59
2022/09/22 06:55:42;;;;;;;;;28.67;25.00;;;;;;;;5038794;28;45416;-59
2022/09/22 06:58:07;;;;;;;;;10.67;10.67;;;;;;;;5033761;28;47172;-59
2022/09/22 07:00:33;;;;;;;;;16.00;13.67;;;;;;;;5032691;28;45256;-59
2022/09/22 07:03:03;;;;;;;;;14.00;13.33;;;;;;;;5038434;28;45375;-58
2022/09/22 07:05:29;;;;;;;;;11.33;11.33;;;;;;;;5038657;28;45505;-59
2022/09/22 07:07:54;;;;;;;;;16.00;13.33;;;;;;;;5037399;28;46798;-58
2022/09/22 07:10:19;;;;;;;;;15.67;14.00;;;;;;;;5038673;28;45314;-58
2022/09/22 07:12:44;;;;;;;;;10.00;10.00;;;;;;;;5039456;28;45337;-59
2022/09/22 07:15:11;;;;;;;;;15.00;14.00;;;;;;;;5038273;28;45700;-58
2022/09/22 07:17:36;;;;;;;;;16.00;14.00;;;;;;;;5038220;28;47007;-59
2022/09/22 07:20:04;;;;;;;;;11.67;11.67;;;;;;;;5036506;28;45283;-59
2022/09/22 07:22:29;;;;;;;;;14.00;11.00;;;;;;;;5038751;28;45419;-59
2022/09/22 07:24:54;;;;;;;;;17.00;14.67;;;;;;;;5041400;28;45239;-58
2022/09/22 07:27:25;;;;;;;;;14.67;13.00;;;;;;;;5054900;28;45330;-59
2022/09/22 07:29:51;;;;;;;;;12.00;10.67;;;;;;;;5033755;28;45483;-59
2022/09/22 07:32:16;;;;;;;;;14.67;14.67;;;;;;;;5036657;28;45429;-58
2022/09/22 07:34:41;;;;;;;;;13.00;13.00;;;;;;;;5038385;28;45396;-60
2022/09/22 07:37:07;;;;;;;;;15.00;15.00;;;;;;;;5037792;28;45319;-59
2022/09/22 07:39:32;;;;;;;;;12.00;12.00;;;;;;;;5036786;28;45296;-59
2022/09/22 07:41:58;;;;;;;;;18.33;12.67;;;;;;;;5031548;28;45480;-59
2022/09/22 07:47:06;;;;;;;;;17.67;16.33;;;;;;;;5043765;28;45477;-58
2022/09/22 07:49:32;;;;;;;;;14.33;14.33;;;;;;;;5039299;28;45449;-58
2022/09/22 07:51:57;;;;;;;;;19.00;14.67;;;;;;;;5037232;28;45251;-59
2022/09/22 07:54:23;;;;;;;;;15.67;14.67;;;;;;;;5037939;28;45268;-59
2022/09/22 07:56:56;;;;;;;;;14.67;12.33;;;;;;;;5037336;28;45355;-59
2022/09/22 07:59:22;;;;;;;;;23.67;16.00;;;;;;;;5038080;28;45301;-59
2022/09/22 08:01:49;;;;;;;;;17.33;15.33;;;;;;;;5037635;28;45225;-59
2022/09/22 08:04:17;;;;;;;;;14.67;13.67;;;;;;;;5038391;28;45405;-60
2022/09/22 08:06:43;;;;;;;;;16.00;13.67;;;;;;;;5036585;28;45394;-59
2022/09/22 08:09:09;;;;;;;;;15.67;13.67;;;;;;;;5038238;28;45374;-60
2022/09/22 08:11:34;;;;;;;;;16.33;13.33;;;;;;;;5038413;28;45319;-58
2022/09/22 08:14:00;;;;;;;;;18.00;17.00;;;;;;;;5037815;28;45445;-59
2022/09/22 08:16:27;;;;;;;;;13.67;9.67;;;;;;;;5038413;28;46284;-59
2022/09/22 08:18:54;;;;;;;;;18.00;18.00;;;;;;;;5038725;28;45992;-59
2022/09/22 08:21:20;;;;;;;;;16.67;15.33;;;;;;;;5042322;28;45350;-58
2022/09/22 08:23:45;;;;;;;;;13.33;13.33;;;;;;;;5040302;28;45287;-59
2022/09/22 08:26:10;;;;;;;;;19.00;17.00;;;;;;;;5042365;28;47102;-58
2022/09/22 08:28:36;;;;;;;;;16.67;14.67;;;;;;;;5040556;28;45770;-58
2022/09/22 08:31:01;;;;;;;;;16.67;15.33;;;;;;;;5040915;28;45442;-59
2022/09/22 08:33:28;;;;;;;;;13.00;12.67;;;;;;;;5040323;28;45500;-59
2022/09/22 08:35:55;;;;;;;;;21.67;18.00;;;;;;;;5040580;28;45399;-58
2022/09/22 08:38:22;;;;;;;;;20.33;19.33;;;;;;;;5040791;28;45240;-59
2022/09/22 08:40:57;;;;;;;;;18.67;14.67;;;;;;;;5040029;28;45335;-59
2022/09/22 08:43:22;;;;;;;;;21.00;14.67;;;;;;;;5040147;28;45413;-59
2022/09/22 08:45:48;;;;;;;;;16.00;16.00;;;;;;;;5039477;28;45406;-59
2022/09/22 08:53:50;;;;;;;;;17.67;15.67;;;;;;;;5029151;28;45437;-59
2022/09/22 08:56:23;;;;;;;;;19.00;16.67;;;;;;;;5040323;28;46097;-59
2022/09/22 08:59:00;;;;;;;;;19.00;14.67;;;;;;;;5039613;28;45399;-59
2022/09/22 09:01:45;;;;;;;;;16.67;16.00;;;;;;;;5038603;28;45827;-59
2022/09/22 09:04:27;;;;;;;;;14.67;14.33;;;;;;;;5039891;28;45474;-59
2022/09/22 09:06:53;;;;;;;;;14.67;12.67;;;;;;;;5029084;28;45602;-59
2022/09/22 09:09:44;;;;;;;;;14.67;11.67;;;;;;;;5040250;28;45310;-59
2022/09/22 09:12:09;;;;;;;;;19.67;15.33;;;;;;;;5009642;28;45558;-58
2022/09/22 09:14:44;;;;;;;;;14.00;13.00;;;;;;;;5040604;28;45632;-58
2022/09/22 09:17:13;;;;;;;;;10.33;10.33;;;;;;;;5039695;28;45390;-58
2022/09/22 09:19:49;;;;;;;;;13.33;10.33;;;;;;;;5039808;28;45365;-58
2022/09/22 09:22:14;;;;;;;;;18.33;11.67;;;;;;;;5039833;28;45473;-58
2022/09/22 09:24:45;;;;;;;;;6.33;4.67;;;;;;;;5039881;28;45298;-58
2022/09/22 09:27:12;;;;;;;;;12.67;9.33;;;;;;;;5039854;28;45535;-58
2022/09/22 09:29:43;;;;;;;;;13.33;8.33;;;;;;;;5039985;28;45324;-58
2022/09/22 09:32:15;;;;;;;;;10.67;9.00;;;;;;;;5038756;28;45276;-59
2022/09/22 09:34:41;;;;;;;;;13.25;11.50;;;;;;;;5039905;28;45346;-58
2022/09/22 09:37:11;;;;;;;;;12.50;9.75;;;;;;;;5039669;28;46172;-58
2022/09/22 09:39:38;;;;;;;;;7.25;7.25;;;;;;;;5039768;28;45327;-58
2022/09/22 09:42:23;;;;;;;;;5.00;5.00;;;;;;;;5039929;28;45279;-58
2022/09/22 09:44:52;;;;;;;;;9.75;7.25;;;;;;;;5039485;28;45592;-59
2022/09/22 09:47:18;;;;;;;;;9.00;6.50;;;;;;;;5039646;28;47043;-58
2022/09/22 09:49:43;;;;;;;;;6.25;6.25;;;;;;;;5039378;28;45287;-58
2022/09/22 09:52:10;;;;;;;;;9.00;7.75;;;;;;;;5040140;28;45278;-58
2022/09/22 09:54:36;;;;;;;;;5.50;3.75;;;;;;;;5039509;28;45363;-58
2022/09/22 09:57:09;;;;;;;;;6.50;6.00;;;;;;;;5039753;28;46246;-58
2022/09/22 10:02:27;;;;;;;;;9.00;7.00;;;;;;;;5024459;28;45441;-59
2022/09/22 10:04:57;;;;;;;;;6.50;5.50;;;;;;;;5039195;28;45483;-58
2022/09/22 10:07:25;;;;;;;;;7.00;5.25;;;;;;;;5039294;28;46324;-58
2022/09/22 10:09:51;;;;;;;;;7.75;6.50;;;;;;;;5038616;28;45263;-58
2022/09/22 10:12:27;;;;;;;;;13.50;7.00;;;;;;;;5039887;28;45272;-59
2022/09/22 10:14:54;;;;;;;;;6.25;4.75;;;;;;;;5039399;28;45503;-59
2022/09/22 10:17:21;;;;;;;;;3.25;3.25;;;;;;;;5038775;28;46184;-59
2022/09/22 10:19:47;;;;;;;;;5.25;4.00;;;;;;;;5039035;28;45409;-59
2022/09/22 10:22:23;;;;;;;;;2.25;2.25;;;;;;;;5039312;28;45211;-58
2022/09/22 10:24:53;;;;;;;;;4.00;4.00;;;;;;;;5039047;28;45596;-58
2022/09/22 10:27:25;;;;;;;;;1.00;0.00;;;;;;;;5039171;28;46087;-57
2022/09/22 10:30:09;;;;;;;;;6.00;5.75;;;;;;;;5039079;28;45370;-57
2022/09/22 10:32:35;;;;;;;;;3.75;3.25;;;;;;;;5039254;28;45394;-58
2022/09/22 10:35:20;;;;;;;;;4.75;2.00;;;;;;;;5039115;28;45374;-58
2022/09/22 10:37:46;;;;;;;;;3.00;1.75;;;;;;;;5038714;28;45323;-58
2022/09/22 10:40:13;;;;;;;;;2.00;2.00;;;;;;;;5020996;28;45361;-59
2022/09/22 10:42:46;;;;;;;;;2.75;2.75;;;;;;;;5037922;28;45256;-58
2022/09/22 10:45:18;;;;;;;;;2.00;2.00;;;;;;;;5038732;28;45355;-59
2022/09/22 10:47:46;;;;;;;;;2.25;2.00;;;;;;;;5038440;28;47028;-58
2022/09/22 10:50:30;;;;;;;;;2.00;0.50;;;;;;;;5038935;28;45420;-58
2022/09/22 10:53:19;;;;;;;;;2.25;1.00;;;;;;;;5038623;28;45493;-58
2022/09/22 10:56:08;;;;;;;;;0.00;0.00;;;;;;;;5001802;28;45492;-58
2022/09/22 10:58:52;;;;;;;;;0.00;0.00;;;;;;;;4997522;28;45589;-57
2022/09/22 11:01:35;;;;;;;;;0.75;0.75;;;;;;;;5038340;28;45370;-59
2022/09/22 11:04:19;;;;;;;;;1.75;1.75;;;;;;;;5020859;28;45334;-58
2022/09/22 11:12:27;;;;;;;;;0.00;0.00;;;;;;;;5038908;28;45320;-58
2022/09/22 11:15:12;;;;;;;;;2.00;2.00;;;;;;;;5038603;28;46295;-58
2022/09/22 11:17:52;;;;;;;;;1.50;1.50;;;;;;;;5037807;28;45376;-58
2022/09/22 11:20:33;;;;;;;;;5.50;3.25;;;;;;;;5038654;28;45415;-58
2022/09/22 11:23:17;;;;;;;;;2.00;2.00;;;;;;;;5038232;28;45296;-59
2022/09/22 11:25:42;;;;;;;;;1.50;1.50;;;;;;;;5038047;28;45446;-58
2022/09/22 11:28:19;;;;;;;;;4.00;2.00;;;;;;;;5038808;28;45414;-59
2022/09/22 11:30:56;;;;;;;;;0.50;0.50;;;;;;;;5037702;28;47152;-58
2022/09/22 11:33:21;;;;;;;;;3.60;2.20;;;;;;;;5038509;28;45260;-58
2022/09/22 11:35:49;;;;;;;;;4.00;2.75;;;;;;;;5038006;28;45401;-58
2022/09/22 11:38:24;;;;;;;;;2.00;2.00;;;;;;;;5038475;28;45347;-59
2022/09/22 11:40:53;;;;;;;;;1.00;1.00;;;;;;;;5038153;28;45421;-59
2022/09/22 11:43:37;;;;;;;;;2.75;1.75;;;;;;;;5038290;28;45416;-59
2022/09/22 11:46:09;;;;;;;;;0.00;0.00;;;;;;;;5037984;28;45342;-59
2022/09/22 11:48:34;;;;;;;;;2.75;1.50;;;;;;;;5038120;28;45220;-58
2022/09/22 11:50:59;;;;;;;;;0.75;0.75;;;;;;;;5037792;28;46163;-58
2022/09/22 11:53:24;;;;;;;;;0.40;0.40;;;;;;;;5038072;28;45354;-58
2022/09/22 11:56:02;;;;;;;;;0.00;0.00;;;;;;;;5041328;28;45462;-58
2022/09/22 11:58:30;;;;;;;;;0.25;0.25;;;;;;;;5040971;28;45402;-58
2022/09/22 12:01:03;;;;;;;;;1.50;0.50;;;;;;;;5040810;28;46999;-58
2022/09/22 12:03:32;;;;;;;;;0.75;0.75;;;;;;;;5041584;28;45276;-58
2022/09/22 12:06:02;;;;;;;;;1.50;1.50;;;;;;;;5041018;28;45520;-58
2022/09/22 12:08:31;;;;;;;;;2.50;2.50;;;;;;;;5041609;28;45506;-58
2022/09/22 12:10:57;;;;;;;;;3.75;2.50;;;;;;;;5040646;28;46131;-58
2022/09/22 12:13:26;;;;;;;;;4.00;2.00;;;;;;;;5041614;28;45224;-58
2022/09/22 12:16:05;;;;;;;;;1.00;1.00;;;;;;;;5040959;28;45395;-58
2022/09/22 12:18:51;;;;;;;;;2.00;0.00;;;;;;;;5041343;28;45524;-58
2022/09/22 12:21:20;;;;;;;;;0.25;0.25;;;;;;;;5030377;28;45418;-58
2022/09/22 12:23:48;;;;;;;;;1.25;0.75;;;;;;;;5040710;28;45644;-59
2022/09/22 12:26:32;;;;;;;;;0.75;0.75;;;;;;;;5041505;28;45405;-59
2022/09/22 12:29:01;;;;;;;;;3.25;2.25;;;;;;;;5040778;28;45328;-59
2022/09/22 12:31:47;;;;;;;;;0.75;0.75;;;;;;;;5041003;28;46007;-58
2022/09/22 12:34:20;;;;;;;;;2.25;2.25;;;;;;;;5040817;28;45252;-58
2022/09/22 12:36:46;;;;;;;;;1.00;1.00;;;;;;;;5040739;28;45366;-58
2022/09/22 12:39:19;;;;;;;;;2.00;2.00;;;;;;;;5041255;28;45214;-58
2022/09/22 12:41:51;;;;;;;;;0.75;0.75;;;;;;;;5040456;28;45511;-58
2022/09/22 12:44:19;;;;;;;;;1.25;1.25;;;;;;;;5041306;28;45390;-59
2022/09/22 12:46:45;;;;;;;;;1.00;1.00;;;;;;;;5040413;28;45369;-59
2022/09/22 12:49:14;;;;;;;;;0.25;0.00;;;;;;;;5041300;28;45338;-58
2022/09/22 12:51:39;;;;;;;;;0.75;0.75;;;;;;;;5040293;28;46248;-58
2022/09/22 12:54:24;;;;;;;;;2.25;2.25;;;;;;;;5040707;28;45280;-58
2022/09/22 12:56:57;;;;;;;;;1.75;1.75;;;;;;;;5039192;28;45244;-57
2022/09/22 12:59:35;;;;;;;;;2.75;1.25;;;;;;;;5040678;28;45819;-59
2022/09/22 13:02:16;;;;;;;;;4.75;3.25;;;;;;;;5040238;28;45845;-59
2022/09/22 13:05:02;;;;;;;;;2.00;2.00;;;;;;;;5038348;28;45346;-59
2022/09/22 13:07:38;;;;;;;;;3.00;2.00;;;;;;;;4981991;28;46755;-59
2022/09/22 13:13:02;;;;;;;;;1.00;1.00;;;;;;;;5039788;28;45964;-59
2022/09/22 13:15:30;;;;;;;;;3.75;1.75;;;;;;;;5040234;28;45300;-59
2022/09/22 13:17:57;;;;;;;;;3.00;3.00;;;;;;;;5039876;28;45415;-58
2022/09/22 13:20:22;;;;;;;;;1.00;1.00;;;;;;;;5040440;28;45359;-59
2022/09/22 13:22:48;;;;;;;;;1.00;1.00;;;;;;;;5039684;28;46270;-59
2022/09/22 13:25:14;;;;;;;;;4.25;3.00;;;;;;;;5040293;28;45935;-59
2022/09/22 13:27:39;;;;;;;;;1.25;1.25;;;;;;;;5039877;28;45226;-59
2022/09/22 13:30:06;;;;;;;;;1.00;1.00;;;;;;;;5040376;28;45272;-58
2022/09/22 13:32:31;;;;;;;;;2.00;2.00;;;;;;;;5039482;28;46290;-58
2022/09/22 13:34:56;;;;;;;;;2.00;0.00;;;;;;;;5039831;28;45240;-58
2022/09/22 13:37:23;;;;;;;;;2.00;2.00;;;;;;;;5040193;28;45519;-58
2022/09/22 13:39:50;;;;;;;;;1.00;1.00;;;;;;;;5039918;28;45389;-57
2022/09/22 13:42:18;;;;;;;;;2.00;2.00;;;;;;;;5039633;28;45423;-59
2022/09/22 13:44:46;;;;;;;;;4.00;4.00;;;;;;;;5039554;28;45275;-58
2022/09/22 13:47:17;;;;;;;;;2.00;0.75;;;;;;;;5039854;28;45504;-58
2022/09/22 13:49:44;;;;;;;;;4.00;2.25;;;;;;;;5039453;28;45545;-58
2022/09/22 13:52:20;;;;;;;;;4.50;3.75;;;;;;;;5022021;28;46204;-58
2022/09/22 13:54:47;;;;;;;;;2.00;2.00;;;;;;;;5039365;28;45735;-58
2022/09/22 13:57:23;;;;;;;;;2.00;2.00;;;;;;;;5040038;28;45394;-58
2022/09/22 13:59:49;;;;;;;;;1.75;1.75;;;;;;;;5039180;28;45335;-58
2022/09/22 14:02:18;;;;;;;;;4.00;2.00;;;;;;;;5039666;28;45399;-58
2022/09/22 14:04:49;;;;;;;;;2.25;2.25;;;;;;;;5038796;28;45286;-58
2022/09/22 14:07:15;;;;;;;;;2.50;2.50;;;;;;;;5022201;28;45366;-58
2022/09/22 14:09:40;;;;;;;;;5.00;2.00;;;;;;;;5039331;28;45361;-59
2022/09/22 14:12:07;;;;;;;;;3.75;2.00;;;;;;;;5039474;28;45303;-59
2022/09/22 14:14:32;;;;;;;;;2.50;2.50;;;;;;;;5039265;28;45293;-59
2022/09/22 14:17:00;;;;;;;;;2.00;2.00;;;;;;;;5038841;28;45564;-59
2022/09/22 14:19:32;;;;;;;;;1.25;1.25;;;;;;;;5039393;28;45336;-59
2022/09/22 14:22:03;;;;;;;;;4.00;2.00;;;;;;;;5038685;28;46221;-59
2022/09/22 14:24:29;;;;;;;;;2.00;2.00;;;;;;;;5039087;28;45354;-58
2022/09/22 14:27:05;;;;;;;;;2.00;2.00;;;;;;;;5038811;28;45294;-58
2022/09/22 14:29:35;;;;;;;;;2.67;2.33;;;;;;;;5027654;28;45534;-58
2022/09/22 14:32:15;;;;;;;;;1.25;1.25;;;;;;;;5038670;28;45568;-58
2022/09/22 14:34:44;;;;;;;;;0.75;0.75;;;;;;;;5038877;28;45391;-59
2022/09/22 14:37:15;;;;;;;;;2.00;2.00;;;;;;;;5038953;28;45285;-57
2022/09/22 14:39:42;;;;;;;;;3.00;3.00;;;;;;;;5038714;28;45314;-58
2022/09/22 14:42:10;;;;;;;;;1.50;1.50;;;;;;;;5038655;28;45354;-57
2022/09/22 14:44:36;;;;;;;;;3.50;2.50;;;;;;;;5038733;28;45220;-58
2022/09/22 14:47:28;;;;;;;;;1.25;1.00;;;;;;;;5038720;28;45407;-58
2022/09/22 14:50:09;;;;;;;;;3.00;3.00;;;;;;;;5031690;28;45621;-59
2022/09/22 14:52:38;;;;;;;;;2.00;2.00;;;;;;;;5030386;28;46312;-58
2022/09/22 14:55:15;;;;;;;;;1.75;1.75;;;;;;;;5038777;28;45343;-58
2022/09/22 14:57:46;;;;;;;;;3.67;2.33;;;;;;;;5035909;28;45559;-58
2022/09/22 15:02:57;;;;;;;;;1.00;1.00;;;;;;;;5035535;28;45352;-58
2022/09/22 15:05:24;;;;;;;;;2.00;1.33;;;;;;;;5034676;28;45261;-59
2022/09/22 15:07:51;;;;;;;;;2.00;2.00;;;;;;;;5035689;28;45698;-59
2022/09/22 15:10:30;;;;;;;;;2.00;1.00;;;;;;;;5039130;28;45479;-59
2022/09/22 15:13:13;;;;;;;;;3.00;2.00;;;;;;;;5038214;28;46052;-59
2022/09/22 15:15:43;;;;;;;;;4.00;2.67;;;;;;;;5038137;28;45276;-58
2022/09/22 15:18:15;;;;;;;;;2.33;2.33;;;;;;;;5035222;28;45390;-58
2022/09/22 15:20:43;;;;;;;;;0.00;0.00;;;;;;;;5028546;28;45424;-59
2022/09/22 15:23:12;;;;;;;;;5.00;3.33;;;;;;;;5038437;28;46124;-58
2022/09/22 15:25:37;;;;;;;;;0.50;0.50;;;;;;;;5038060;28;45647;-58
2022/09/22 15:28:10;;;;;;;;;2.00;2.00;;;;;;;;5039330;28;45585;-58
2022/09/22 15:30:35;;;;;;;;;2.50;2.25;;;;;;;;5039283;28;45838;-58
2022/09/22 15:33:02;;;;;;;;;3.67;2.00;;;;;;;;5041540;28;46259;-58
2022/09/22 15:35:29;;;;;;;;;3.00;2.33;;;;;;;;5042074;28;45439;-59
2022/09/22 15:37:55;;;;;;;;;4.50;3.00;;;;;;;;5037369;28;45349;-58
2022/09/22 15:40:21;;;;;;;;;1.75;1.75;;;;;;;;5042096;28;45225;-58
2022/09/22 15:42:50;;;;;;;;;3.00;3.00;;;;;;;;5027385;28;46258;-59
2022/09/22 15:45:17;;;;;;;;;3.00;3.00;;;;;;;;5048476;28;45165;-59
2022/09/22 15:47:44;;;;;;;;;2.00;2.00;;;;;;;;5051434;28;45534;-59
2022/09/22 15:50:14;;;;;;;;;3.50;3.00;;;;;;;;5044570;28;45448;-60
2022/09/22 15:52:42;;;;;;;;;2.00;2.00;;;;;;;;5041164;28;45789;-59
2022/09/22 15:55:11;;;;;;;;;1.00;1.00;;;;;;;;5054561;28;45430;-59
2022/09/22 15:57:36;;;;;;;;;1.33;0.00;;;;;;;;5041201;28;45382;-60
2022/09/22 16:00:02;;;;;;;;;6.00;2.25;;;;;;;;5042492;28;45487;-60
2022/09/22 16:02:28;;;;;;;;;2.00;2.00;;;;;;;;5043078;28;46368;-60
2022/09/22 16:04:56;;;;;;;;;1.50;1.50;;;;;;;;5041430;28;45312;-60
2022/09/22 16:07:21;;;;;;;;;3.00;3.00;;;;;;;;5042529;28;45316;-60
2022/09/22 16:09:46;;;;;;;;;1.00;1.00;;;;;;;;5044506;28;45422;-60
2022/09/22 16:12:12;;;;;;;;;2.00;2.00;;;;;;;;5043337;28;46928;-59
2022/09/22 16:14:41;;;;;;;;;2.50;2.50;;;;;;;;5042872;28;45420;-60
2022/09/22 16:17:06;;;;;;;;;4.00;4.00;;;;;;;;5040960;28;45316;-59
2022/09/22 16:19:31;;;;;;;;;3.75;2.00;;;;;;;;5051291;28;45753;-59
2022/09/22 16:21:56;;;;;;;;;2.33;2.33;;;;;;;;5033171;28;45668;-58
2022/09/22 16:24:22;;;;;;;;;2.00;2.00;;;;;;;;5042589;28;45479;-58
2022/09/22 16:26:47;;;;;;;;;3.00;2.25;;;;;;;;5038939;28;45480;-58
2022/09/22 16:29:13;;;;;;;;;2.00;2.00;;;;;;;;5042460;28;45440;-59
2022/09/22 16:31:38;;;;;;;;;2.25;1.00;;;;;;;;5048132;28;45545;-58
2022/09/22 16:34:04;;;;;;;;;3.00;2.00;;;;;;;;5054709;28;45438;-59
2022/09/22 16:36:31;;;;;;;;;3.67;0.33;;;;;;;;5049011;28;45328;-58
2022/09/22 16:38:57;;;;;;;;;2.00;2.00;;;;;;;;5049398;28;45465;-59
2022/09/22 16:41:24;;;;;;;;;1.00;1.00;;;;;;;;5042248;28;45338;-58
2022/09/22 16:43:50;;;;;;;;;2.00;2.00;;;;;;;;5048644;28;45405;-59
2022/09/22 16:46:28;;;;;;;;;3.67;3.00;;;;;;;;5036053;28;45327;-58
2022/09/22 16:48:54;;;;;;;;;2.00;2.00;;;;;;;;5046660;28;45379;-58
2022/09/22 16:51:20;;;;;;;;;2.25;2.00;;;;;;;;5040886;28;46225;-59
2022/09/22 16:53:51;;;;;;;;;4.00;2.00;;;;;;;;5035225;28;45951;-59
2022/09/22 16:56:21;;;;;;;;;4.33;4.33;;;;;;;;5051774;28;45246;-58
2022/09/22 16:58:47;;;;;;;;;4.00;2.00;;;;;;;;5043966;28;45315;-59
2022/09/22 17:01:14;;;;;;;;;3.00;2.67;;;;;;;;5029164;28;46747;-59
2022/09/22 17:03:40;;;;;;;;;2.00;2.00;;;;;;;;5047620;28;45228;-59
2022/09/22 17:06:06;;;;;;;;;2.33;2.33;;;;;;;;5042352;28;45291;-59
2022/09/22 17:08:32;;;;;;;;;5.00;3.00;;;;;;;;5044148;28;45283;-58
2022/09/22 17:10:58;;;;;;;;;3.00;2.00;;;;;;;;5058818;28;46119;-58
2022/09/22 17:13:26;;;;;;;;;2.00;2.00;;;;;;;;5045133;28;45403;-60
2022/09/22 17:16:10;;;;;;;;;3.33;2.00;;;;;;;;5058006;28;45457;-58
2022/09/22 17:18:38;;;;;;;;;2.00;2.00;;;;;;;;5028287;28;46156;-59
2022/09/22 17:21:04;;;;;;;;;1.00;1.00;;;;;;;;5040800;28;47007;-58
2022/09/22 17:23:30;;;;;;;;;2.67;2.67;;;;;;;;5036299;28;45501;-59
2022/09/22 17:25:56;;;;;;;;;2.67;2.67;;;;;;;;5058383;28;45635;-58
2022/09/22 17:28:22;;;;;;;;;3.00;2.00;;;;;;;;5040467;28;45529;-59
2022/09/22 17:30:56;;;;;;;;;4.67;3.00;;;;;;;;5042932;28;45237;-59
2022/09/22 17:33:21;;;;;;;;;3.00;2.00;;;;;;;;5044074;28;45508;-58
2022/09/22 17:35:46;;;;;;;;;1.33;1.00;;;;;;;;5043007;28;45790;-59
2022/09/22 17:38:11;;;;;;;;;2.33;2.00;;;;;;;;5051880;28;45484;-59
2022/09/22 17:40:39;;;;;;;;;3.00;2.00;;;;;;;;5041517;28;46016;-58
2022/09/22 17:43:05;;;;;;;;;4.33;3.00;;;;;;;;5045975;28;45569;-59
2022/09/22 17:45:30;;;;;;;;;2.00;2.00;;;;;;;;5030707;28;45910;-58
2022/09/22 17:56:07;;;;;;;;;2.67;2.67;;;;;;;;5044487;28;45519;-58
2022/09/22 17:58:32;;;;;;;;;2.67;2.33;;;;;;;;5038362;28;45442;-58
2022/09/22 18:00:58;;;;;;;;;5.33;4.67;;;;;;;;5040217;28;46409;-61
2022/09/22 18:03:23;;;;;;;;;5.00;5.00;;;;;;;;5036848;28;45469;-59
2022/09/22 18:05:55;;;;;;;;;2.00;2.00;;;;;;;;5036871;28;45241;-60
2022/09/22 18:08:20;;;;;;;;;3.00;3.00;;;;;;;;5044358;28;45369;-59
2022/09/22 18:10:46;;;;;;;;;4.67;3.67;;;;;;;;5037938;28;45324;-58
2022/09/22 18:13:11;;;;;;;;;4.33;4.00;;;;;;;;5050748;28;45782;-59
2022/09/22 18:15:36;;;;;;;;;3.00;3.00;;;;;;;;5039379;28;45649;-59
2022/09/22 18:18:02;;;;;;;;;4.00;4.00;;;;;;;;5041404;28;45514;-59
2022/09/22 18:20:27;;;;;;;;;9.00;6.67;;;;;;;;5035817;28;45311;-59
2022/09/22 18:22:53;;;;;;;;;6.33;4.00;;;;;;;;5042611;28;45521;-60
2022/09/22 18:25:18;;;;;;;;;6.33;6.33;;;;;;;;5034509;28;45551;-60
2022/09/22 18:27:43;;;;;;;;;6.67;5.00;;;;;;;;5037834;28;45316;-53
2022/09/22 18:30:08;;;;;;;;;8.67;5.00;;;;;;;;5038824;28;46315;-53
2022/09/22 18:32:35;;;;;;;;;5.00;4.00;;;;;;;;5038550;28;45435;-53
2022/09/22 18:35:00;;;;;;;;;4.33;4.33;;;;;;;;5039665;28;45208;-54
2022/09/22 18:37:26;;;;;;;;;5.67;5.33;;;;;;;;5050033;28;45391;-54
2022/09/22 18:39:51;;;;;;;;;4.00;4.00;;;;;;;;5039040;28;46178;-53
2022/09/22 18:42:17;;;;;;;;;4.00;4.00;;;;;;;;5040064;28;45401;-53
2022/09/22 18:44:43;;;;;;;;;5.33;5.33;;;;;;;;5039209;28;45509;-54
2022/09/22 18:47:11;;;;;;;;;7.33;5.67;;;;;;;;5031296;28;45598;-55
2022/09/22 18:49:39;;;;;;;;;7.33;6.00;;;;;;;;5035316;28;46237;-54
2022/09/22 18:52:04;;;;;;;;;4.00;4.00;;;;;;;;5029673;28;45434;-55
2022/09/22 18:54:30;;;;;;;;;8.33;7.33;;;;;;;;5039296;28;45157;-54
2022/09/22 18:56:56;;;;;;;;;9.00;6.67;;;;;;;;5035490;28;45812;-54
2022/09/22 18:59:22;;;;;;;;;10.67;8.33;;;;;;;;5034913;28;46195;-54
2022/09/22 19:01:48;;;;;;;;;8.33;7.67;;;;;;;;5031477;28;45425;-52
2022/09/22 19:04:16;;;;;;;;;8.00;8.00;;;;;;;;5039145;28;45415;-54
2022/09/22 19:09:26;;;;;;;;;9.00;8.00;;;;;;;;5035032;28;45473;-55
2022/09/22 19:11:52;;;;;;;;;9.33;8.67;;;;;;;;5037679;28;45396;-54
2022/09/22 19:14:18;;;;;;;;;7.67;7.67;;;;;;;;5033525;28;45545;-54
2022/09/22 19:16:47;;;;;;;;;9.67;9.00;;;;;;;;5039578;28;45653;-53
2022/09/22 19:19:12;;;;;;;;;8.67;8.67;;;;;;;;5032883;28;47009;-54
2022/09/22 19:21:38;;;;;;;;;11.00;10.00;;;;;;;;5035758;28;45272;-53
2022/09/22 19:24:04;;;;;;;;;9.00;9.00;;;;;;;;5034069;28;46060;-55
2022/09/22 19:26:30;;;;;;;;;10.67;9.00;;;;;;;;5033203;28;45774;-52
2022/09/22 19:28:55;;;;;;;;;9.67;8.33;;;;;;;;5038646;28;46274;-54
2022/09/22 19:31:20;;;;;;;;;14.00;9.00;;;;;;;;5030517;28;45437;-54
2022/09/22 19:33:46;;;;;;;;;10.00;8.33;;;;;;;;5026547;28;45617;-54
2022/09/22 19:36:11;;;;;;;;;10.00;9.00;;;;;;;;5034478;28;45307;-54
2022/09/22 19:38:36;;;;;;;;;11.00;8.67;;;;;;;;5030566;28;45235;-55
2022/09/22 19:41:02;;;;;;;;;12.67;9.33;;;;;;;;5041649;28;45349;-54
2022/09/22 19:43:28;;;;;;;;;12.33;9.33;;;;;;;;5034007;28;45478;-52
2022/09/22 19:45:53;;;;;;;;;9.00;7.67;;;;;;;;5028746;28;45311;-53
2022/09/22 19:48:18;;;;;;;;;10.67;10.67;;;;;;;;5038498;28;45424;-53